x

Gulf Of Maine - 78 Nm East Of Portsmouth, Nh (44005) Wave Buoy

7:50 - Sat 22nd Nov 2014 All times are EST. -5 hours from GMT.

  • Sig Wave height 4.6ft
  • Peak Period 6s
  • Average Period 5s
  • Wind
    18mph, 22mph gusts
  • Sea Temp 50°f
  • Aire Temp 33°f
  • Sea Pressure 1027.1mb
  • Gulf Of Maine - 78 Nm East Of Portsmouth, Nh
  • Gulf Of Maine - 78 Nm East Of Portsmouth, Nh

More Historic Weather Station data

Upgrade to MSW Pro to gain access to the past 30 days of data for over 8000 Wavebouys and Weather Stations around the globe.

Join Pro

Comparision Forecast

View Surf forecast
   
sáb 11/22 7:50 4.5ft 6s 5s 18 22 mph 1027.1mb 50f 33f
6:50  -   -   -  18 22 mph 1027.3mb 50f 32f
5:50 4ft 6s 4s 18 22 mph 1027.2mb 50f 32f
4:50  -   -   -  16 22 mph 1027.4mb 50f 31f
3:50  -   -   -  16 22 mph 1027.5mb 50f 31f
2:50 5.5ft 6s 5s 16 25 mph 1027.6mb 50f 31f
1:50 6.5ft 6s 5s 18 27 mph 1027.2mb 50f 31f
12:50 6ft 6s 5s 25 34 mph 1026.6mb 50f 31f
vie 11/21 11:50  -   -   -  22 29 mph 1026mb 50f 31f
10:50 7ft 6s 5s 22 29 mph 1025.3mb 50f 32f
8:50 8ft 7s 5s 27 34 mph 1024.4mb 50f 33f
6:50 7.5ft 6s 5s 29 36 mph 1022.9mb 50f 34f
5:50 8ft 7s 5s 27 36 mph 1022.1mb 50f 34f
4:50 8ft 7s 5s 29 38 mph 1020.7mb 50f 34f
3:50  -   -   -  27 36 mph 1019.6mb 50f 34f
2:50 7.5ft 7s 5s 31 38 mph 1017.9mb 50f 34f
1:50 7.5ft 6s 5s 29 36 mph 1016.4mb 50f 35f
12:50 7ft 6s 5s 29 38 mph 1015.5mb 51f 35f
11:50 7.5ft 7s 5s 27 34 mph 1015mb 51f 34f
10:50  -   -   -  29 38 mph 1014.4mb 51f 34f
9:50 8ft 7s 5s 25 36 mph 1014.4mb 51f 34f
7:50 8ft 6s 5s 27 36 mph 1012.9mb 51f 34f
6:50  -   -   -  27 34 mph 1012.2mb 51f 34f
5:50 8ft 6s 5s 27 34 mph 1011.6mb 51f 34f
4:50 8ft 6s 5s 29 34 mph 1010.7mb 51f 35f
3:50 7ft 6s 5s 25 34 mph 1010.4mb 51f 37f
2:50  -   -   -  22 29 mph 1010.3mb 51f 37f
1:50 7ft 6s 5s 27 31 mph 1010.2mb 51f 37f
12:50 7ft 7s 5s 27 34 mph 1009.8mb 51f 38f
jue 11/20 11:50 8ft 6s 5s 25 34 mph 1010.2mb 51f 38f
10:50 7.5ft 7s 5s 25 31 mph 1009.9mb 51f 39f
9:50 7.5ft 6s 5s 27 31 mph 1009.5mb 51f 40f
8:50 6.5ft 5s 5s 22 29 mph 1009.6mb 51f 40f
7:50 6ft 6s 5s 22 29 mph 1009mb 51f 41f
6:50  -   -   -  25
mph
1007.8mb - 44f
5:50 6ft 6s 5s 22 29 mph 1006.9mb 51f 45f
4:50 7ft 6s 5s 20 27 mph 1006.6mb 51f 46f
3:50 7.5ft 6s 5s 25 29 mph 1006.3mb 51f 46f
2:50 6.5ft 7s 5s 27 34 mph 1006.6mb 51f 46f
1:50 7ft 7s 5s 22 29 mph 1007.2mb 51f 46f
12:50 7ft 7s 5s 25 29 mph 1007.6mb 51f 45f
11:50 7ft 7s 5s 25 31 mph 1008.4mb 51f 45f
10:50 8ft 7s 6s 25 29 mph 1009.6mb 51f 45f
9:50 9ft 8s 6s 25 31 mph 1010.7mb 51f 44f
8:50 8ft 7s 6s 27 34 mph 1011.3mb 51f 44f
7:50 8ft 7s 5s 27 34 mph 1011.8mb 51f 43f
6:50 8ft 7s 6s 27 31 mph 1012mb 51f 42f
5:50 8ft 7s 6s 27 34 mph 1012.5mb 51f 42f
4:50 9ft 7s 6s 29 38 mph 1013.3mb 51f 42f
3:50 8.5ft 8s 6s 29 34 mph 1014.2mb 51f 41f
2:50 8ft 7s 5s 34 40 mph 1015.2mb 51f 40f
1:50 8.5ft 7s 6s 27 34 mph 1016mb 51f 40f
12:50 7ft 6s 5s 29 36 mph 1016.3mb 51f 40f
mié 11/19 11:50 7ft 6s 5s 29 36 mph 1017.2mb 51f 39f
10:50 5ft 5s 5s 25 29 mph 1017.5mb 51f 39f
9:50 5ft 5s 5s 25 31 mph 1017.9mb 51f 39f
8:50 4.5ft 10s 4s 22 27 mph 1018mb 51f 39f
7:50 4.5ft 10s 5s 20 25 mph 1018.2mb 51f 39f
6:50 4.5ft 11s 5s 22 29 mph 1018.7mb 51f 39f
5:50 4ft 11s 5s 18 25 mph 1019mb 51f 38f
4:50 4.5ft 11s 5s 13 20 mph 1018.8mb 51f 37f
3:50 5ft 11s 5s 13 20 mph 1018.3mb 51f 37f
2:50 6ft 11s 5s 16 22 mph 1018mb 51f 36f
1:50 7ft 10s 5s 18 22 mph 1017.9mb 51f 36f
12:50 7.5ft 7s 6s 20 27 mph 1017.6mb 51f 35f
11:50 9ft 8s 6s 20 27 mph 1017.3mb 51f 35f
10:50  -   -   -  22
mph
- - 34f
9:50 10ft 8s 6s 27 31 mph 1016.4mb 51f 33f
8:50 10ft 8s 6s 29 36 mph 1015.3mb 51f 33f
7:50 11ft 7s 6s 31 40 mph 1014.1mb 51f 33f
6:50 11.5ft 8s 6s 31 40 mph 1012.9mb 51f 33f
5:50 11ft 8s 6s 34 40 mph 1011.8mb 51f 33f
4:50 12.5ft 7s 6s 36 43 mph 1010.6mb 51f 33f
3:50 12ft 8s 6s 34 43 mph 1010.1mb 51f 33f
2:50 13ft 8s 7s 31 38 mph 1009.8mb 51f 33f
1:50  -   -   -  31 38 mph 1009.5mb 51f 33f
12:50  -   -   -  31 43 mph 1009.2mb 51f 33f
mar 11/18 11:50 11ft 12s 7s 31 40 mph 1008.8mb 51f 33f
10:50 11ft 7s 6s 31 40 mph 1008.5mb 51f 33f
9:50 11.5ft 11s 7s 29 38 mph 1008.1mb 51f 33f
8:50 10.5ft 11s 6s 29 36 mph 1007.6mb 51f 34f
7:50 11ft 7s 7s 29 36 mph 1007.1mb 51f 34f
6:50 10.5ft 7s 6s 29 38 mph 1005.9mb 51f 35f
5:50 11ft 7s 6s 29 38 mph 1005.1mb 51f 35f
4:50 10.5ft 7s 6s 31 38 mph 1004.3mb 51f 37f
3:50 10ft 7s 6s 31 40 mph 1002.9mb 51f 37f
2:50 11ft 7s 6s 29 36 mph 1001.9mb 52f 38f
1:50 11ft 11s 6s 31 40 mph 1001.1mb 52f 39f